Time;durP1;ratioP1;P1;durP2;ratioP2;P2;SDS_P1;SDS_P2;PMS_P1;PMS_P2;Temp;Humidity;BMP_temperature;BMP_pressure;BME280_temperature;BME280_humidity;BME280_pressure;Samples;Min_cycle;Max_cycle;Signal;HPM_P1;HPM_P2
2021/04/15 04:11:37;;;;;;;1.30;1.30;;;4.30;99.90;;;;;;5352923;23;20239;-77
2021/04/15 04:14:13;;;;;;;1.07;1.07;;;4.30;99.90;;;;;;4903761;29;20210;-77
2021/04/15 04:16:44;;;;;;;1.23;1.23;;;4.30;99.90;;;;;;4903239;29;20630;-77
2021/04/15 04:19:27;;;;;;;1.27;1.27;;;4.30;99.90;;;;;;4903385;29;20232;-78
2021/04/15 04:22:03;;;;;;;1.10;1.10;;;4.10;99.90;;;;;;4907017;29;20775;-78
2021/04/15 04:24:40;;;;;;;1.20;1.20;;;4.20;99.90;;;;;;4901951;29;20258;-76
2021/04/15 04:27:17;;;;;;;1.20;1.20;;;4.20;99.90;;;;;;4900013;29;20672;-76
2021/04/15 04:29:51;;;;;;;1.30;1.30;;;4.00;99.90;;;;;;4899986;29;20207;-76
2021/04/15 04:32:21;;;;;;;1.20;1.20;;;4.10;99.90;;;;;;4899874;29;20230;-76
2021/04/15 04:34:51;;;;;;;1.40;1.40;;;3.90;99.90;;;;;;4899888;29;20217;-76
2021/04/15 04:37:19;;;;;;;1.43;1.43;;;3.80;99.90;;;;;;4899879;29;20287;-76
2021/04/15 04:39:46;;;;;;;1.00;1.00;;;3.70;99.90;;;;;;4899820;29;20643;-75
2021/04/15 04:42:22;;;;;;;1.20;1.20;;;3.70;99.90;;;;;;4892776;29;20752;-76
2021/04/15 04:44:52;;;;;;;1.10;1.10;;;3.80;99.90;;;;;;4898762;29;20254;-77
2021/04/15 04:47:27;;;;;;;1.20;1.20;;;3.80;99.90;;;;;;4899180;29;20627;-78
2021/04/15 04:50:01;;;;;;;1.30;1.30;;;3.90;99.90;;;;;;4899447;29;20619;-78
2021/04/15 04:52:31;;;;;;;1.20;1.20;;;3.80;99.90;;;;;;4898023;29;20720;-77
2021/04/15 04:54:59;;;;;;;1.30;1.30;;;3.90;99.90;;;;;;4899585;29;20736;-78
2021/04/15 04:57:34;;;;;;;1.10;1.10;;;3.90;99.90;;;;;;4899124;29;20274;-78
2021/04/15 05:00:04;;;;;;;1.10;1.10;;;3.80;99.90;;;;;;4897315;29;20731;-76
2021/04/15 05:02:31;;;;;;;1.40;1.40;;;3.80;99.90;;;;;;4898633;29;20294;-78
2021/04/15 05:05:06;;;;;;;1.20;1.20;;;3.80;99.90;;;;;;4897801;29;20573;-76
2021/04/15 05:07:37;;;;;;;1.63;1.63;;;3.90;99.90;;;;;;4897271;29;20212;-77
2021/04/15 05:10:05;;;;;;;1.23;1.23;;;4.00;99.90;;;;;;4911845;29;20544;-78
2021/04/15 05:12:35;;;;;;;1.30;1.30;;;4.00;99.90;;;;;;4907733;29;20318;-77
2021/04/15 05:15:06;;;;;;;1.20;1.20;;;4.00;99.90;;;;;;4916312;29;20210;-78
2021/04/15 05:17:37;;;;;;;1.40;1.40;;;4.00;99.90;;;;;;4917915;29;20207;-78
2021/04/15 05:20:10;;;;;;;1.20;1.20;;;4.00;99.90;;;;;;4917746;29;20233;-77
2021/04/15 05:22:40;;;;;;;1.40;1.40;;;4.00;99.90;;;;;;4916177;29;20263;-77
2021/04/15 05:25:14;;;;;;;1.20;1.20;;;4.00;99.90;;;;;;4904664;29;20275;-77
2021/04/15 05:27:42;;;;;;;1.40;1.40;;;3.90;99.90;;;;;;4906112;29;20203;-78
2021/04/15 05:30:33;;;;;;;1.30;1.30;;;3.80;99.90;;;;;;4906207;29;20693;-78
2021/04/15 05:33:04;;;;;;;1.17;1.17;;;3.70;99.90;;;;;;4907532;29;20215;-78
2021/04/15 05:35:34;;;;;;;1.40;1.40;;;3.80;99.90;;;;;;4907521;29;20207;-78
2021/04/15 05:38:01;;;;;;;1.10;1.10;;;4.10;99.90;;;;;;4908396;29;20268;-78
2021/04/15 05:40:28;;;;;;;1.20;1.20;;;4.10;99.90;;;;;;4907564;29;20259;-78
2021/04/15 05:43:06;;;;;;;1.30;1.30;;;4.10;99.90;;;;;;4905563;29;20568;-78
2021/04/15 05:45:36;;;;;;;1.30;1.30;;;4.20;99.90;;;;;;4903833;29;20211;-78
2021/04/15 05:48:06;;;;;;;1.40;1.40;;;4.20;99.90;;;;;;4905113;29;20211;-78
2021/04/15 05:50:38;;;;;;;1.53;1.53;;;4.20;99.90;;;;;;4905673;29;20283;-78
2021/04/15 05:53:09;;;;;;;1.40;1.40;;;4.00;99.90;;;;;;4905595;29;20208;-78
2021/04/15 05:55:41;;;;;;;1.20;1.20;;;4.20;99.90;;;;;;4904706;29;20248;-78
2021/04/15 05:58:15;;;;;;;1.20;1.20;;;4.20;99.90;;;;;;4905479;29;20211;-78
2021/04/15 06:00:46;;;;;;;1.10;1.10;;;4.30;99.90;;;;;;4902222;29;20234;-80
2021/04/15 06:03:22;;;;;;;1.40;1.40;;;4.40;99.90;;;;;;4906025;29;20212;-77
2021/04/15 06:05:55;;;;;;;1.30;1.30;;;4.50;99.90;;;;;;4904893;29;20207;-77
2021/04/15 06:08:24;;;;;;;1.40;1.40;;;4.50;99.90;;;;;;4905263;29;20208;-78
2021/04/15 06:10:57;;;;;;;1.20;1.20;;;4.40;99.90;;;;;;4904736;29;20239;-77
2021/04/15 06:13:31;;;;;;;1.27;1.27;;;4.40;99.90;;;;;;4899434;29;20263;-77
2021/04/15 06:16:03;;;;;;;1.40;1.40;;;4.50;99.90;;;;;;4901052;29;20214;-77
2021/04/15 06:18:35;;;;;;;1.23;1.23;;;4.60;99.90;;;;;;4902037;29;20271;-77
2021/04/15 06:21:05;;;;;;;1.20;1.20;;;4.70;99.90;;;;;;4898183;29;20330;-77
2021/04/15 06:23:39;;;;;;;1.30;1.30;;;4.90;99.90;;;;;;4899141;29;20215;-77
2021/04/15 06:26:09;;;;;;;1.10;1.10;;;5.00;99.90;;;;;;4897589;29;20267;-77
2021/04/15 06:28:41;;;;;;;1.40;1.40;;;4.90;99.90;;;;;;4900196;29;20207;-78
2021/04/15 06:31:17;;;;;;;1.40;1.40;;;5.00;99.90;;;;;;4900119;29;20227;-77
2021/04/15 06:33:45;;;;;;;1.37;1.37;;;5.00;99.90;;;;;;4900473;29;20269;-78
2021/04/15 06:36:22;;;;;;;1.20;1.20;;;5.00;99.90;;;;;;4904684;29;20270;-78
2021/04/15 06:38:57;;;;;;;1.10;1.10;;;5.10;99.90;;;;;;4898349;29;20211;-77
2021/04/15 06:41:46;;;;;;;1.40;1.40;;;5.30;99.90;;;;;;4898516;29;20294;-78
2021/04/15 06:45:02;;;;;;;1.30;1.30;;;5.30;99.90;;;;;;4898394;29;20290;-78
2021/04/15 06:47:53;;;;;;;1.23;1.23;;;5.40;99.90;;;;;;4898315;29;20200;-78
2021/04/15 06:50:28;;;;;;;1.30;1.30;;;5.30;99.90;;;;;;4875219;29;20230;-77
2021/04/15 06:53:11;;;;;;;1.23;1.23;;;5.20;99.90;;;;;;4898024;29;20263;-77
2021/04/15 06:55:58;;;;;;;1.07;1.07;;;5.20;99.90;;;;;;4897941;29;20214;-78
2021/04/15 06:58:35;;;;;;;1.30;1.30;;;5.10;99.90;;;;;;4898010;29;20503;-77
2021/04/15 07:01:26;;;;;;;1.13;1.13;;;5.30;99.90;;;;;;4897726;29;20262;-77
2021/04/15 07:04:03;;;;;;;1.20;1.20;;;5.50;99.90;;;;;;4895955;29;20852;-77
2021/04/15 07:06:44;;;;;;;1.30;1.30;;;5.70;99.90;;;;;;4896949;29;20719;-77
2021/04/15 07:09:33;;;;;;;1.17;1.17;;;5.60;99.90;;;;;;4898292;29;20263;-77
2021/04/15 07:12:15;;;;;;;1.30;1.30;;;5.60;99.90;;;;;;4897523;29;20235;-77
2021/04/15 07:14:59;;;;;;;1.13;1.13;;;5.70;99.90;;;;;;4897297;29;20219;-77
2021/04/15 07:17:55;;;;;;;1.10;1.10;;;5.90;99.90;;;;;;4898052;29;20207;-77
2021/04/15 07:20:52;;;;;;;1.37;1.37;;;5.70;99.90;;;;;;4897763;29;20322;-78
2021/04/15 07:23:52;;;;;;;1.30;1.30;;;5.70;99.90;;;;;;4897629;29;20211;-77
2021/04/15 07:26:51;;;;;;;1.40;1.40;;;5.80;99.90;;;;;;4897437;29;20208;-77
2021/04/15 07:29:33;;;;;;;1.10;1.10;;;5.60;99.90;;;;;;4873320;29;20207;-77
2021/04/15 07:32:10;;;;;;;1.07;1.07;;;5.60;99.90;;;;;;4896847;29;20227;-77
2021/04/15 07:35:25;;;;;;;1.20;1.20;;;5.80;99.90;;;;;;4897903;29;20218;-78
2021/04/15 07:38:10;;;;;;;1.30;1.30;;;5.90;99.90;;;;;;4876265;29;20203;-77
2021/04/15 07:40:47;;;;;;;1.10;1.10;;;5.90;99.90;;;;;;4906203;29;20260;-77
2021/04/15 07:43:36;;;;;;;1.10;1.10;;;5.90;99.90;;;;;;4906528;29;20215;-77
2021/04/15 07:46:10;;;;;;;1.27;1.27;;;6.00;99.90;;;;;;4904729;29;20209;-78
2021/04/15 07:49:15;;;;;;;1.10;1.10;;;6.00;99.90;;;;;;4906245;29;20230;-77
2021/04/15 07:52:09;;;;;;;1.10;1.10;;;6.20;99.90;;;;;;4904471;29;20302;-77
2021/04/15 07:54:58;;;;;;;1.27;1.27;;;6.20;99.90;;;;;;4902901;29;20211;-77
2021/04/15 07:57:48;;;;;;;1.00;1.00;;;6.30;99.90;;;;;;4902871;29;20270;-77
2021/04/15 08:00:30;;;;;;;1.30;1.30;;;7.00;99.90;;;;;;4903555;29;20223;-78
2021/04/15 08:03:34;;;;;;;1.00;1.00;;;6.90;99.80;;;;;;4903961;29;20245;-78
2021/04/15 08:06:24;;;;;;;0.90;0.90;;;7.20;99.30;;;;;;4903750;29;20213;-78
2021/04/15 08:09:32;;;;;;;1.10;1.10;;;7.20;99.10;;;;;;4904641;29;20616;-78
2021/04/15 08:12:27;;;;;;;1.00;1.00;;;6.90;99.30;;;;;;4876949;29;20238;-78
2021/04/15 08:15:39;;;;;;;1.13;1.13;;;6.80;99.80;;;;;;4904514;29;20204;-78
2021/04/15 08:18:22;;;;;;;1.00;1.00;;;6.60;99.90;;;;;;4868989;29;20213;-78
2021/04/15 08:21:09;;;;;;;1.10;1.10;;;6.70;99.90;;;;;;4905094;29;20648;-78
2021/04/15 08:23:56;;;;;;;1.00;1.00;;;6.90;99.90;;;;;;4905608;29;20203;-78
2021/04/15 08:27:06;;;;;;;1.07;1.07;;;6.80;99.90;;;;;;4906765;29;20262;-78
2021/04/15 08:29:52;;;;;;;1.10;1.10;;;7.10;99.90;;;;;;4906929;29;20684;-78
2021/04/15 08:32:29;;;;;;;1.00;1.00;;;7.10;99.10;;;;;;4907237;29;20231;-78
2021/04/15 08:35:09;;;;;;;0.90;0.90;;;7.30;98.50;;;;;;4904003;29;20207;-77
2021/04/15 08:37:52;;;;;;;1.10;1.10;;;7.40;99.00;;;;;;4904311;29;20207;-78
2021/04/15 08:40:31;;;;;;;0.90;0.90;;;7.20;99.90;;;;;;4903713;29;20227;-78
2021/04/15 08:43:25;;;;;;;1.17;1.17;;;7.10;98.80;;;;;;4904400;29;20211;-78
2021/04/15 08:46:02;;;;;;;1.00;1.00;;;7.30;98.60;;;;;;4903409;29;20219;-78
2021/04/15 08:48:41;;;;;;;1.00;1.00;;;7.00;99.10;;;;;;4899700;29;20696;-78
2021/04/15 08:51:43;;;;;;;1.10;1.10;;;7.30;98.30;;;;;;4901285;29;20640;-78
2021/04/15 08:54:27;;;;;;;1.10;1.10;;;7.40;97.70;;;;;;4901465;29;20227;-78
2021/04/15 08:56:58;;;;;;;1.03;1.03;;;7.30;95.40;;;;;;4901233;29;20211;-78
2021/04/15 08:59:48;;;;;;;1.20;1.20;;;7.30;95.40;;;;;;4900955;29;20227;-77
2021/04/15 09:02:24;;;;;;;1.10;1.10;;;7.10;94.80;;;;;;4900135;29;20709;-78
2021/04/15 09:05:01;;;;;;;1.00;1.00;;;7.10;95.20;;;;;;4899895;29;20211;-77
2021/04/15 09:07:38;;;;;;;1.10;1.10;;;7.30;96.20;;;;;;4900359;29;20206;-78
2021/04/15 09:10:21;;;;;;;1.00;1.00;;;7.60;95.80;;;;;;4900194;29;20207;-77
2021/04/15 09:13:16;;;;;;;1.00;1.00;;;7.50;94.00;;;;;;4900464;29;20243;-77
2021/04/15 09:15:54;;;;;;;1.10;1.10;;;7.40;93.10;;;;;;4899627;29;20274;-77
2021/04/15 09:18:26;;;;;;;1.10;1.10;;;7.50;92.60;;;;;;4899600;29;20629;-77
2021/04/15 09:21:06;;;;;;;1.03;1.03;;;7.40;93.60;;;;;;4899815;29;20258;-78
2021/04/15 09:24:02;;;;;;;1.00;1.00;;;7.60;93.80;;;;;;4900003;29;20215;-77
2021/04/15 09:26:46;;;;;;;1.10;1.10;;;7.90;93.80;;;;;;4898075;29;20573;-77
2021/04/15 09:29:18;;;;;;;1.10;1.10;;;7.90;92.40;;;;;;4899355;29;20259;-77
2021/04/15 09:31:53;;;;;;;1.00;1.00;;;8.00;93.10;;;;;;4899405;29;20259;-78
2021/04/15 09:34:55;;;;;;;0.90;0.90;;;7.90;93.60;;;;;;4899344;29;20676;-78
2021/04/15 09:37:57;;;;;;;1.20;1.20;;;8.10;93.90;;;;;;4899256;29;20210;-78
2021/04/15 09:40:36;;;;;;;1.00;1.00;;;7.90;99.90;;;;;;4899371;29;20531;-77
2021/04/15 09:43:11;;;;;;;1.10;1.10;;;7.80;92.80;;;;;;4899267;29;20211;-77
2021/04/15 09:45:55;;;;;;;1.00;1.00;;;7.80;93.30;;;;;;4899167;29;20203;-77
2021/04/15 09:48:50;;;;;;;1.00;1.00;;;7.80;93.10;;;;;;4899336;29;20207;-77
2021/04/15 09:51:45;;;;;;;1.00;1.00;;;8.00;93.30;;;;;;4899614;29;20250;-78
2021/04/15 09:54:22;;;;;;;0.97;0.97;;;8.40;92.60;;;;;;4899809;29;20219;-78
2021/04/15 09:56:59;;;;;;;0.90;0.90;;;8.60;92.10;;;;;;4898223;29;20259;-74
2021/04/15 09:59:36;;;;;;;1.10;1.10;;;8.60;91.70;;;;;;4893481;29;20666;-76
2021/04/15 10:02:10;;;;;;;0.80;0.80;;;8.10;92.10;;;;;;4896290;29;20688;-78
2021/04/15 10:04:43;;;;;;;0.97;0.97;;;7.80;92.30;;;;;;4896960;29;20210;-78
2021/04/15 10:07:15;;;;;;;1.13;1.13;;;7.80;92.10;;;;;;4899435;29;20282;-78
2021/04/15 10:10:02;;;;;;;1.10;1.10;;;7.80;92.10;;;;;;4902944;29;20195;-78
2021/04/15 10:12:54;;;;;;;1.00;1.00;;;8.30;91.40;;;;;;4902151;29;20652;-77
2021/04/15 10:15:40;;;;;;;1.10;1.10;;;8.30;91.40;;;;;;4901854;29;20254;-76
2021/04/15 10:18:19;;;;;;;0.80;0.80;;;8.40;91.10;;;;;;4903089;29;20219;-76
2021/04/15 10:21:05;;;;;;;1.10;1.10;;;8.50;90.40;;;;;;4903236;29;20278;-76
2021/04/15 10:24:06;;;;;;;1.00;1.00;;;8.30;90.80;;;;;;4898245;29;20188;-77
2021/04/15 10:27:03;;;;;;;1.03;1.03;;;8.30;90.50;;;;;;4892701;29;20219;-76
2021/04/15 10:30:05;;;;;;;1.13;1.13;;;8.10;90.70;;;;;;4898651;29;20192;-76
2021/04/15 10:32:48;;;;;;;1.27;1.27;;;8.10;89.20;;;;;;4869704;29;20234;-77
2021/04/15 10:35:51;;;;;;;1.07;1.07;;;8.20;89.30;;;;;;4897908;29;20208;-77
2021/04/15 10:38:54;;;;;;;1.00;1.00;;;8.20;90.20;;;;;;4899245;29;20207;-77
2021/04/15 10:41:54;;;;;;;1.10;1.10;;;8.20;90.00;;;;;;4897568;29;20239;-77
2021/04/15 10:44:51;;;;;;;0.93;0.93;;;8.20;89.40;;;;;;4897338;29;20207;-77
2021/04/15 10:47:33;;;;;;;0.90;0.90;;;8.10;90.20;;;;;;4898805;29;20262;-77
2021/04/15 10:50:14;;;;;;;0.80;0.80;;;8.10;90.10;;;;;;4899546;29;20211;-78
2021/04/15 10:52:54;;;;;;;0.90;0.90;;;8.40;88.50;;;;;;4901029;29;20211;-75
2021/04/15 10:55:25;;;;;;;1.00;1.00;;;8.50;87.60;;;;;;4899142;29;20547;-76
2021/04/15 10:57:53;;;;;;;1.00;1.00;;;8.70;86.20;;;;;;4896027;29;20215;-78
2021/04/15 11:00:26;;;;;;;1.10;1.10;;;8.60;96.80;;;;;;4897031;29;20223;-77
2021/04/15 11:02:56;;;;;;;1.00;1.00;;;8.60;88.20;;;;;;4896743;29;20562;-76
2021/04/15 11:05:28;;;;;;;1.00;1.00;;;8.50;88.60;;;;;;4899574;29;20248;-77
2021/04/15 11:08:05;;;;;;;1.00;1.00;;;8.20;87.80;;;;;;4897175;29;20199;-76
2021/04/15 11:10:35;;;;;;;0.90;0.90;;;8.10;84.40;;;;;;4896214;29;20294;-78
2021/04/15 11:13:13;;;;;;;1.10;1.10;;;7.90;84.80;;;;;;4896569;29;20218;-77
2021/04/15 11:15:43;;;;;;;1.20;1.20;;;7.60;88.30;;;;;;4896513;29;20266;-76
2021/04/15 11:18:14;;;;;;;1.23;1.23;;;7.20;91.30;;;;;;4896395;29;20215;-76
2021/04/15 11:20:42;;;;;;;1.17;1.17;;;7.00;92.40;;;;;;4896158;29;20243;-76
2021/04/15 11:23:32;;;;;;;1.07;1.07;;;7.20;91.60;;;;;;4896278;29;20210;-76
2021/04/15 11:26:22;;;;;;;1.00;1.00;;;7.30;89.70;;;;;;4895900;29;20253;-77
2021/04/15 11:28:52;;;;;;;1.10;1.10;;;7.10;89.00;;;;;;4896662;29;20272;-76
2021/04/15 11:31:35;;;;;;;1.10;1.10;;;7.20;88.20;;;;;;4896625;29;20234;-77
2021/04/15 11:34:12;;;;;;;1.10;1.10;;;7.20;86.40;;;;;;4896248;29;20227;-77
2021/04/15 11:36:43;;;;;;;1.00;1.00;;;7.30;86.90;;;;;;4896019;29;20595;-76
2021/04/15 11:39:16;;;;;;;1.00;1.00;;;7.30;88.30;;;;;;4896336;29;20260;-77
2021/04/15 11:41:53;;;;;;;1.07;1.07;;;7.30;88.30;;;;;;4895386;29;20230;-76
2021/04/15 11:44:31;;;;;;;0.80;0.80;;;7.20;90.00;;;;;;4894370;29;20686;-77
2021/04/15 11:47:01;;;;;;;0.90;0.90;;;7.40;90.40;;;;;;4896841;29;20210;-77
2021/04/15 11:49:31;;;;;;;1.07;1.07;;;7.40;90.60;;;;;;4894244;29;20204;-77
2021/04/15 11:52:29;;;;;;;1.00;1.00;;;7.40;89.60;;;;;;4896469;29;20211;-77
2021/04/15 11:55:22;;;;;;;0.90;0.90;;;7.50;88.10;;;;;;4894752;29;20254;-76
2021/04/15 11:57:58;;;;;;;1.10;1.10;;;7.40;91.40;;;;;;4892812;29;20211;-77
2021/04/15 12:00:28;;;;;;;1.10;1.10;;;6.80;99.90;;;;;;4896223;29;20231;-77
2021/04/15 12:03:09;;;;;;;1.07;1.07;;;6.80;95.10;;;;;;4896389;29;20620;-77
2021/04/15 12:05:40;;;;;;;0.93;0.93;;;6.70;95.60;;;;;;4895856;29;20211;-77
2021/04/15 12:08:13;;;;;;;1.10;1.10;;;6.80;96.50;;;;;;4896816;29;20215;-77
2021/04/15 12:10:42;;;;;;;1.10;1.10;;;7.00;96.20;;;;;;4896517;29;20773;-78
2021/04/15 12:13:16;;;;;;;1.10;1.10;;;7.20;95.70;;;;;;4897129;29;20263;-78
2021/04/15 12:15:54;;;;;;;1.00;1.00;;;7.40;94.10;;;;;;4896520;29;20223;-78
2021/04/15 12:18:27;;;;;;;1.03;1.03;;;7.50;93.50;;;;;;4896839;29;20270;-78
2021/04/15 12:21:02;;;;;;;0.80;0.80;;;7.60;93.30;;;;;;4896397;29;20241;-78
2021/04/15 12:23:38;;;;;;;1.20;1.20;;;7.60;92.50;;;;;;4900316;29;20262;-77
2021/04/15 12:26:28;;;;;;;1.00;1.00;;;7.40;93.10;;;;;;4899975;29;20681;-77
2021/04/15 12:29:02;;;;;;;1.00;1.00;;;7.20;94.60;;;;;;4900333;29;20207;-78
2021/04/15 12:31:37;;;;;;;1.17;1.17;;;6.80;97.00;;;;;;4899954;29;20226;-77
2021/04/15 12:34:38;;;;;;;1.10;1.10;;;6.60;97.50;;;;;;4900315;29;20221;-77
2021/04/15 12:37:12;;;;;;;0.97;0.97;;;6.60;98.60;;;;;;4859093;29;20260;-78
2021/04/15 12:39:50;;;;;;;1.00;1.00;;;6.60;99.90;;;;;;4900109;29;20207;-77
2021/04/15 12:42:21;;;;;;;1.00;1.00;;;6.80;99.90;;;;;;4900050;29;20640;-77
2021/04/15 12:44:49;;;;;;;1.00;1.00;;;7.00;99.10;;;;;;4899993;29;20276;-77
2021/04/15 12:47:18;;;;;;;0.97;0.97;;;7.40;99.30;;;;;;4900161;29;20207;-78
2021/04/15 12:49:47;;;;;;;1.10;1.10;;;7.60;97.90;;;;;;4902054;29;20234;-78
2021/04/15 12:52:14;;;;;;;1.10;1.10;;;7.60;96.70;;;;;;4899865;29;20228;-78
2021/04/15 12:54:44;;;;;;;1.00;1.00;;;7.50;96.70;;;;;;4900151;29;20741;-78
2021/04/15 12:57:12;;;;;;;0.80;0.80;;;7.70;97.40;;;;;;4906080;29;20748;-80
2021/04/15 12:59:43;;;;;;;1.00;1.00;;;7.70;96.50;;;;;;4906340;29;20200;-81
2021/04/15 13:02:16;;;;;;;0.90;0.90;;;8.00;95.80;;;;;;4909941;29;20226;-79
2021/04/15 13:04:47;;;;;;;1.00;1.00;;;8.00;96.10;;;;;;4906052;29;20211;-80
2021/04/15 13:07:29;;;;;;;1.00;1.00;;;8.10;94.30;;;;;;4908865;29;20203;-80
2021/04/15 13:10:19;;;;;;;1.00;1.00;;;8.20;94.10;;;;;;4907775;29;20204;-79
2021/04/15 13:12:47;;;;;;;0.97;0.97;;;7.90;94.20;;;;;;4906631;29;20624;-79
2021/04/15 13:15:36;;;;;;;1.10;1.10;;;7.80;94.40;;;;;;4899561;29;20215;-80
2021/04/15 13:18:06;;;;;;;1.10;1.10;;;7.60;94.80;;;;;;4898935;29;20204;-80
2021/04/15 13:20:42;;;;;;;1.10;1.10;;;7.70;95.30;;;;;;4897110;29;20244;-80
2021/04/15 13:23:38;;;;;;;0.90;0.90;;;7.70;95.00;;;;;;4896724;29;20203;-80
2021/04/15 13:26:29;;;;;;;0.97;0.97;;;7.40;94.80;;;;;;4885389;29;20203;-80
2021/04/15 13:29:21;;;;;;;1.00;1.00;;;7.60;94.00;;;;;;4886942;29;20206;-80
2021/04/15 13:31:53;;;;;;;1.00;1.00;;;7.30;94.30;;;;;;4904943;29;20649;-80
2021/04/15 13:34:21;;;;;;;1.10;1.10;;;7.20;95.40;;;;;;4904614;29;20702;-80
2021/04/15 13:36:50;;;;;;;0.90;0.90;;;7.00;95.70;;;;;;4906775;29;20707;-80
2021/04/15 13:39:37;;;;;;;1.10;1.10;;;7.20;96.30;;;;;;4905953;29;20561;-79
2021/04/15 13:42:32;;;;;;;1.07;1.07;;;7.40;96.20;;;;;;4904622;29;20813;-80
2021/04/15 13:45:06;;;;;;;1.00;1.00;;;7.60;94.90;;;;;;4903403;29;20216;-79
2021/04/15 13:47:53;;;;;;;1.13;1.13;;;7.40;94.00;;;;;;4904650;29;20262;-78
2021/04/15 13:50:41;;;;;;;1.10;1.10;;;7.20;99.90;;;;;;4902006;29;20202;-76
2021/04/15 13:53:41;;;;;;;0.90;0.90;;;7.20;94.80;;;;;;4893188;29;20267;-77
2021/04/15 13:56:09;;;;;;;1.10;1.10;;;7.10;94.70;;;;;;4885581;29;20216;-78
2021/04/15 13:58:38;;;;;;;1.10;1.10;;;6.90;97.40;;;;;;4890359;29;20204;-78
2021/04/15 14:01:29;;;;;;;0.90;0.90;;;6.50;99.90;;;;;;4889323;29;20295;-79
2021/04/15 14:03:57;;;;;;;1.00;1.00;;;6.30;99.90;;;;;;4891449;29;20200;-81
2021/04/15 14:06:28;;;;;;;1.17;1.17;;;6.00;99.90;;;;;;4900522;29;20207;-80
2021/04/15 14:09:19;;;;;;;1.00;1.00;;;6.00;99.90;;;;;;4899005;29;20278;-79
2021/04/15 14:11:53;;;;;;;1.10;1.10;;;5.90;99.90;;;;;;4899084;29;20712;-79
2021/04/15 14:14:44;;;;;;;1.20;1.20;;;5.70;99.90;;;;;;4898774;29;20204;-79
2021/04/15 14:17:18;;;;;;;1.20;1.20;;;5.60;99.90;;;;;;4900405;29;20223;-80
2021/04/15 14:19:47;;;;;;;1.17;1.17;;;5.80;99.90;;;;;;4899824;29;20285;-80
2021/04/15 14:22:20;;;;;;;1.20;1.20;;;5.80;99.90;;;;;;4897938;29;20231;-79
2021/04/15 14:24:53;;;;;;;1.13;1.13;;;6.00;99.90;;;;;;4900155;29;20263;-80
2021/04/15 14:27:24;;;;;;;1.20;1.20;;;6.10;99.90;;;;;;4897748;29;20212;-81
2021/04/15 14:29:52;;;;;;;1.30;1.30;;;6.10;99.90;;;;;;4897915;29;20211;-81
2021/04/15 14:32:29;;;;;;;1.00;1.00;;;6.20;99.90;;;;;;4899789;29;20215;-79
2021/04/15 14:35:11;;;;;;;1.10;1.10;;;6.30;99.90;;;;;;4899054;29;20895;-79
2021/04/15 14:37:42;;;;;;;1.17;1.17;;;6.40;99.90;;;;;;4896431;29;20315;-78
2021/04/15 14:40:24;;;;;;;1.10;1.10;;;6.60;99.90;;;;;;4899100;29;20350;-79
2021/04/15 14:42:53;;;;;;;1.00;1.00;;;6.50;99.90;;;;;;4898960;29;20256;-79
2021/04/15 14:45:23;;;;;;;1.00;1.00;;;6.60;99.90;;;;;;4895170;29;20200;-78
2021/04/15 14:47:53;;;;;;;1.10;1.10;;;6.80;99.90;;;;;;4899464;29;20203;-78
2021/04/15 14:50:25;;;;;;;1.00;1.00;;;6.60;99.90;;;;;;4897433;29;20199;-78
2021/04/15 14:52:54;;;;;;;1.10;1.10;;;6.70;99.90;;;;;;4897373;29;20192;-78
2021/04/15 14:55:28;;;;;;;1.10;1.10;;;6.70;99.90;;;;;;4893989;29;20199;-78
2021/04/15 14:58:00;;;;;;;1.10;1.10;;;6.60;99.90;;;;;;4897225;29;20222;-78
2021/04/15 15:00:28;;;;;;;1.20;1.20;;;6.50;99.90;;;;;;4897579;29;20468;-78
2021/04/15 15:03:01;;;;;;;1.17;1.17;;;6.60;99.90;;;;;;4897299;29;20227;-79
2021/04/15 15:05:36;;;;;;;1.00;1.00;;;6.30;99.90;;;;;;4898331;29;20199;-79
2021/04/15 15:08:04;;;;;;;1.00;1.00;;;6.20;99.90;;;;;;4896160;29;20251;-78
2021/04/15 15:10:31;;;;;;;1.10;1.10;;;6.20;99.90;;;;;;4897545;29;20237;-78
2021/04/15 15:13:00;;;;;;;1.00;1.00;;;6.30;99.90;;;;;;4898506;29;20254;-80
2021/04/15 15:15:29;;;;;;;0.90;0.90;;;6.40;99.90;;;;;;4897132;29;20253;-79
2021/04/15 15:17:59;;;;;;;1.00;1.00;;;6.60;99.90;;;;;;4897365;29;20619;-80
2021/04/15 15:20:48;;;;;;;1.10;1.10;;;6.90;99.90;;;;;;4898075;29;20206;-79
2021/04/15 15:23:32;;;;;;;1.13;1.13;;;6.60;99.90;;;;;;4897001;29;20211;-79
2021/04/15 15:26:21;;;;;;;1.10;1.10;;;6.80;99.90;;;;;;4895464;29;20284;-79
2021/04/15 15:28:57;;;;;;;1.10;1.10;;;6.80;99.90;;;;;;4896464;29;20196;-78
2021/04/15 15:31:29;;;;;;;1.00;1.00;;;6.70;99.90;;;;;;4896093;29;20291;-79
2021/04/15 15:33:57;;;;;;;0.97;0.97;;;6.60;99.90;;;;;;4897264;29;20294;-79
2021/04/15 15:36:28;;;;;;;1.00;1.00;;;6.60;99.90;;;;;;4897389;29;20677;-80
2021/04/15 15:39:21;;;;;;;1.20;1.20;;;6.40;99.90;;;;;;4898088;29;20578;-79
2021/04/15 15:41:50;;;;;;;1.23;1.23;;;6.00;99.90;;;;;;4897489;29;20227;-79
2021/04/15 15:44:45;;;;;;;1.10;1.10;;;6.00;99.90;;;;;;4897761;29;20263;-79
2021/04/15 15:47:33;;;;;;;1.10;1.10;;;6.00;99.90;;;;;;4897826;29;20641;-80
2021/04/15 15:50:07;;;;;;;1.20;1.20;;;5.90;99.90;;;;;;4898517;29;20242;-79
2021/04/15 15:52:34;;;;;;;1.10;1.10;;;5.80;99.90;;;;;;4897820;29;20283;-80
2021/04/15 15:55:01;;;;;;;1.10;1.10;;;5.70;99.90;;;;;;4899476;29;20196;-80
2021/04/15 15:57:32;;;;;;;1.30;1.30;;;5.70;99.90;;;;;;4904916;29;20267;-79
2021/04/15 16:00:06;;;;;;;1.27;1.27;;;5.70;99.90;;;;;;4902119;29;20568;-78
2021/04/15 16:02:40;;;;;;;1.53;1.53;;;5.70;99.90;;;;;;4902358;29;20262;-79
2021/04/15 16:05:20;;;;;;;1.10;1.10;;;5.60;99.90;;;;;;4902249;29;20229;-79
2021/04/15 16:07:51;;;;;;;1.30;1.30;;;5.60;99.90;;;;;;4903317;29;20207;-79
2021/04/15 16:10:28;;;;;;;1.00;1.00;;;5.70;99.90;;;;;;4901732;29;20271;-82
2021/04/15 16:12:55;;;;;;;1.20;1.20;;;5.50;99.90;;;;;;4902576;29;20255;-80
2021/04/15 16:15:37;;;;;;;1.30;1.30;;;5.50;99.90;;;;;;4900585;29;20203;-80
2021/04/15 16:18:07;;;;;;;1.30;1.30;;;5.40;99.90;;;;;;4900888;29;20246;-81
2021/04/15 16:20:37;;;;;;;1.17;1.17;;;5.50;99.90;;;;;;4901141;29;20234;-79
2021/04/15 16:23:05;;;;;;;1.10;1.10;;;5.50;99.90;;;;;;4902561;29;20223;-81
2021/04/15 16:25:33;;;;;;;1.20;1.20;;;5.60;99.90;;;;;;4905540;29;20208;-79
2021/04/15 16:28:01;;;;;;;1.10;1.10;;;5.50;99.90;;;;;;4919856;29;20190;-78
2021/04/15 16:30:31;;;;;;;1.13;1.13;;;5.70;99.90;;;;;;4908043;29;20212;-79
2021/04/15 16:32:58;;;;;;;1.20;1.20;;;5.70;99.90;;;;;;4909808;29;20208;-77
2021/04/15 16:35:25;;;;;;;1.10;1.10;;;5.60;99.90;;;;;;4905477;29;20224;-78
2021/04/15 16:37:57;;;;;;;1.00;1.00;;;5.70;99.90;;;;;;4901200;29;20345;-78
2021/04/15 16:40:24;;;;;;;1.17;1.17;;;5.80;99.90;;;;;;4901726;29;20240;-77
2021/04/15 16:42:51;;;;;;;1.40;1.40;;;5.80;99.90;;;;;;4902228;29;20231;-79
2021/04/15 16:45:20;;;;;;;1.20;1.20;;;5.50;99.90;;;;;;4903372;29;20553;-78
2021/04/15 16:47:48;;;;;;;1.30;1.30;;;5.50;99.90;;;;;;4903004;29;20218;-77
2021/04/15 16:50:20;;;;;;;1.10;1.10;;;5.20;99.90;;;;;;4900345;29;20577;-78
2021/04/15 16:52:47;;;;;;;1.30;1.30;;;5.30;99.90;;;;;;4900395;29;20200;-76
2021/04/15 16:55:16;;;;;;;1.10;1.10;;;5.30;99.90;;;;;;4901283;29;20219;-78
2021/04/15 16:57:43;;;;;;;1.10;1.10;;;5.10;99.90;;;;;;4901509;29;20223;-77
2021/04/15 17:00:15;;;;;;;1.20;1.20;;;5.10;99.90;;;;;;4901436;29;20210;-78
2021/04/15 17:02:43;;;;;;;1.07;1.07;;;5.00;99.90;;;;;;4901782;29;20302;-78
2021/04/15 17:05:14;;;;;;;1.13;1.13;;;5.00;99.90;;;;;;4897292;29;20203;-77
2021/04/15 17:07:41;;;;;;;1.50;1.50;;;5.00;99.90;;;;;;4900059;29;20719;-78
2021/04/15 17:10:10;;;;;;;1.33;1.33;;;4.90;99.90;;;;;;4901937;29;20777;-79
2021/04/15 17:12:38;;;;;;;1.00;1.00;;;4.90;99.90;;;;;;4901965;29;20209;-77
2021/04/15 17:15:07;;;;;;;1.30;1.30;;;5.00;99.90;;;;;;4902851;29;20556;-78
2021/04/15 17:17:34;;;;;;;1.20;1.20;;;4.90;99.90;;;;;;4904151;29;20210;-77
2021/04/15 17:20:01;;;;;;;1.13;1.13;;;4.90;99.90;;;;;;4903223;29;20210;-76
2021/04/15 17:22:29;;;;;;;1.30;1.30;;;4.90;99.90;;;;;;4903052;29;20227;-77
2021/04/15 17:24:56;;;;;;;1.20;1.20;;;4.90;99.90;;;;;;4901992;29;20235;-77
2021/04/15 17:27:24;;;;;;;1.30;1.30;;;4.90;99.90;;;;;;4901166;29;20267;-77
2021/04/15 17:29:51;;;;;;;1.30;1.30;;;4.80;99.90;;;;;;4900839;29;20776;-77
2021/04/15 17:32:18;;;;;;;1.10;1.10;;;4.80;99.90;;;;;;4899608;29;20219;-77
2021/04/15 17:34:46;;;;;;;1.30;1.30;;;4.90;99.90;;;;;;4899615;29;20204;-77
2021/04/15 17:37:13;;;;;;;1.10;1.10;;;5.00;99.90;;;;;;4898875;29;20633;-77
2021/04/15 17:39:40;;;;;;;1.20;1.20;;;4.90;99.90;;;;;;4898250;29;20673;-77
2021/04/15 17:42:08;;;;;;;1.40;1.40;;;5.00;99.90;;;;;;4899830;29;20295;-78
2021/04/15 17:44:35;;;;;;;1.30;1.30;;;5.10;99.90;;;;;;4904196;29;20681;-78
2021/04/15 17:47:04;;;;;;;1.30;1.30;;;5.00;99.90;;;;;;4902383;29;20199;-77
2021/04/15 17:49:31;;;;;;;1.40;1.40;;;5.00;99.90;;;;;;4902567;29;20204;-78
2021/04/15 17:51:59;;;;;;;1.20;1.20;;;5.10;99.90;;;;;;4901874;29;20271;-77
2021/04/15 17:54:30;;;;;;;1.00;1.00;;;5.20;99.90;;;;;;4900086;29;20613;-80
2021/04/15 17:57:00;;;;;;;1.30;1.30;;;5.00;99.90;;;;;;4902959;29;20554;-78
2021/04/15 17:59:30;;;;;;;1.30;1.30;;;5.00;99.90;;;;;;4907280;29;20200;-78
2021/04/15 18:01:57;;;;;;;1.13;1.13;;;5.00;99.90;;;;;;4907160;29;20279;-77